sensor_id;sensor_type;location;lat;lon;timestamp;temperature;humidity
53904;DHT22;39812;52.430;16.936;2023-07-31T00:00:13;16.40;99.90
53904;DHT22;39812;52.430;16.936;2023-07-31T00:02:39;16.40;99.90
53904;DHT22;39812;52.430;16.936;2023-07-31T00:05:05;16.30;99.90
53904;DHT22;39812;52.430;16.936;2023-07-31T00:07:31;16.30;99.90
53904;DHT22;39812;52.430;16.936;2023-07-31T00:09:57;16.30;99.90
53904;DHT22;39812;52.430;16.936;2023-07-31T00:12:23;16.20;99.90
53904;DHT22;39812;52.430;16.936;2023-07-31T00:14:49;16.20;99.90
53904;DHT22;39812;52.430;16.936;2023-07-31T00:17:16;16.10;99.90
53904;DHT22;39812;52.430;16.936;2023-07-31T00:19:41;16.10;99.90
53904;DHT22;39812;52.430;16.936;2023-07-31T00:22:07;16.10;99.90
53904;DHT22;39812;52.430;16.936;2023-07-31T00:24:33;16.10;99.90
53904;DHT22;39812;52.430;16.936;2023-07-31T00:26:58;16.10;99.90
53904;DHT22;39812;52.430;16.936;2023-07-31T00:29:24;16.10;99.90
53904;DHT22;39812;52.430;16.936;2023-07-31T00:31:49;16.00;99.90
53904;DHT22;39812;52.430;16.936;2023-07-31T00:34:15;16.00;99.90
53904;DHT22;39812;52.430;16.936;2023-07-31T00:36:40;16.00;99.90
53904;DHT22;39812;52.430;16.936;2023-07-31T00:39:06;15.90;99.90
53904;DHT22;39812;52.430;16.936;2023-07-31T00:41:32;15.90;99.90
53904;DHT22;39812;52.430;16.936;2023-07-31T00:43:57;15.90;99.90
53904;DHT22;39812;52.430;16.936;2023-07-31T00:46:23;15.80;99.90
53904;DHT22;39812;52.430;16.936;2023-07-31T00:48:49;15.80;99.90
53904;DHT22;39812;52.430;16.936;2023-07-31T00:51:15;15.80;99.90
53904;DHT22;39812;52.430;16.936;2023-07-31T00:53:41;15.70;99.90
53904;DHT22;39812;52.430;16.936;2023-07-31T00:56:07;15.70;99.90
53904;DHT22;39812;52.430;16.936;2023-07-31T00:58:33;15.60;99.90
53904;DHT22;39812;52.430;16.936;2023-07-31T01:00:59;15.60;99.90
53904;DHT22;39812;52.430;16.936;2023-07-31T01:03:24;15.50;99.90
53904;DHT22;39812;52.430;16.936;2023-07-31T01:11:56;15.40;99.90
53904;DHT22;39812;52.430;16.936;2023-07-31T01:14:22;15.40;99.90
53904;DHT22;39812;52.430;16.936;2023-07-31T01:16:47;15.40;99.90
53904;DHT22;39812;52.430;16.936;2023-07-31T01:19:14;15.40;99.90
53904;DHT22;39812;52.430;16.936;2023-07-31T01:27:16;15.40;99.90
53904;DHT22;39812;52.430;16.936;2023-07-31T01:32:30;15.30;99.90
53904;DHT22;39812;52.430;16.936;2023-07-31T01:34:57;15.30;99.90
53904;DHT22;39812;52.430;16.936;2023-07-31T01:37:30;15.20;99.90
53904;DHT22;39812;52.430;16.936;2023-07-31T01:39:56;15.30;99.90
53904;DHT22;39812;52.430;16.936;2023-07-31T01:42:21;15.20;99.90
53904;DHT22;39812;52.430;16.936;2023-07-31T01:44:47;15.20;99.90
53904;DHT22;39812;52.430;16.936;2023-07-31T01:47:12;15.10;99.90
53904;DHT22;39812;52.430;16.936;2023-07-31T01:49:38;15.10;99.90
53904;DHT22;39812;52.430;16.936;2023-07-31T01:52:04;15.10;99.90
53904;DHT22;39812;52.430;16.936;2023-07-31T01:54:30;15.10;99.90
53904;DHT22;39812;52.430;16.936;2023-07-31T01:56:55;15.10;99.90
53904;DHT22;39812;52.430;16.936;2023-07-31T01:59:21;15.10;99.90
53904;DHT22;39812;52.430;16.936;2023-07-31T02:01:46;15.10;99.90
53904;DHT22;39812;52.430;16.936;2023-07-31T02:04:12;15.10;99.90
53904;DHT22;39812;52.430;16.936;2023-07-31T02:06:38;15.10;99.90
53904;DHT22;39812;52.430;16.936;2023-07-31T02:09:04;15.10;99.90
53904;DHT22;39812;52.430;16.936;2023-07-31T02:11:30;15.10;99.90
53904;DHT22;39812;52.430;16.936;2023-07-31T02:13:55;15.10;99.90
53904;DHT22;39812;52.430;16.936;2023-07-31T02:16:21;15.10;99.90
53904;DHT22;39812;52.430;16.936;2023-07-31T02:18:46;15.00;99.90
53904;DHT22;39812;52.430;16.936;2023-07-31T02:21:12;15.00;99.90
53904;DHT22;39812;52.430;16.936;2023-07-31T02:23:38;15.00;99.90
53904;DHT22;39812;52.430;16.936;2023-07-31T02:26:03;15.10;99.90
53904;DHT22;39812;52.430;16.936;2023-07-31T02:28:29;15.10;99.90
53904;DHT22;39812;52.430;16.936;2023-07-31T02:30:55;15.10;99.90
53904;DHT22;39812;52.430;16.936;2023-07-31T02:33:21;15.00;99.90
53904;DHT22;39812;52.430;16.936;2023-07-31T02:35:47;15.10;99.90
53904;DHT22;39812;52.430;16.936;2023-07-31T02:38:12;15.00;99.90
53904;DHT22;39812;52.430;16.936;2023-07-31T02:40:39;15.10;99.90
53904;DHT22;39812;52.430;16.936;2023-07-31T02:43:05;15.00;99.90
53904;DHT22;39812;52.430;16.936;2023-07-31T02:45:31;15.00;99.90
53904;DHT22;39812;52.430;16.936;2023-07-31T02:47:56;14.90;99.90
53904;DHT22;39812;52.430;16.936;2023-07-31T02:50:22;14.90;99.90
53904;DHT22;39812;52.430;16.936;2023-07-31T02:52:47;14.80;99.90
53904;DHT22;39812;52.430;16.936;2023-07-31T02:55:13;14.70;99.90
53904;DHT22;39812;52.430;16.936;2023-07-31T02:57:39;14.70;99.90
53904;DHT22;39812;52.430;16.936;2023-07-31T03:00:05;14.70;99.90
53904;DHT22;39812;52.430;16.936;2023-07-31T03:02:32;14.60;99.90
53904;DHT22;39812;52.430;16.936;2023-07-31T03:04:57;14.60;99.90
53904;DHT22;39812;52.430;16.936;2023-07-31T03:07:23;14.60;99.90
53904;DHT22;39812;52.430;16.936;2023-07-31T03:09:48;14.60;99.90
53904;DHT22;39812;52.430;16.936;2023-07-31T03:12:14;14.60;99.90
53904;DHT22;39812;52.430;16.936;2023-07-31T03:14:40;14.60;99.90
53904;DHT22;39812;52.430;16.936;2023-07-31T03:17:06;14.50;99.90
53904;DHT22;39812;52.430;16.936;2023-07-31T03:19:32;14.60;99.90
53904;DHT22;39812;52.430;16.936;2023-07-31T03:21:58;14.50;99.90
53904;DHT22;39812;52.430;16.936;2023-07-31T03:24:25;14.50;99.90
53904;DHT22;39812;52.430;16.936;2023-07-31T03:26:50;14.50;99.90
53904;DHT22;39812;52.430;16.936;2023-07-31T03:29:16;14.50;99.90
53904;DHT22;39812;52.430;16.936;2023-07-31T03:31:41;14.50;99.90
53904;DHT22;39812;52.430;16.936;2023-07-31T03:34:07;14.50;99.90
53904;DHT22;39812;52.430;16.936;2023-07-31T03:36:33;14.50;99.90
53904;DHT22;39812;52.430;16.936;2023-07-31T03:38:58;14.50;99.90
53904;DHT22;39812;52.430;16.936;2023-07-31T03:41:24;14.60;99.90
53904;DHT22;39812;52.430;16.936;2023-07-31T03:43:51;14.60;99.90
53904;DHT22;39812;52.430;16.936;2023-07-31T03:46:23;14.60;99.90
53904;DHT22;39812;52.430;16.936;2023-07-31T03:48:49;14.60;99.90
53904;DHT22;39812;52.430;16.936;2023-07-31T03:51:15;14.60;99.90
53904;DHT22;39812;52.430;16.936;2023-07-31T03:53:42;14.60;99.90
53904;DHT22;39812;52.430;16.936;2023-07-31T03:56:07;14.70;99.90
53904;DHT22;39812;52.430;16.936;2023-07-31T03:58:33;14.70;99.90
53904;DHT22;39812;52.430;16.936;2023-07-31T04:00:58;14.70;99.90
53904;DHT22;39812;52.430;16.936;2023-07-31T04:03:24;14.70;99.90
53904;DHT22;39812;52.430;16.936;2023-07-31T04:05:50;14.80;99.90
53904;DHT22;39812;52.430;16.936;2023-07-31T04:08:15;14.80;99.90
53904;DHT22;39812;52.430;16.936;2023-07-31T04:10:41;14.80;99.90
53904;DHT22;39812;52.430;16.936;2023-07-31T04:13:06;14.80;99.90
53904;DHT22;39812;52.430;16.936;2023-07-31T04:15:32;14.90;99.90
53904;DHT22;39812;52.430;16.936;2023-07-31T04:17:58;14.90;99.90
53904;DHT22;39812;52.430;16.936;2023-07-31T04:20:23;14.90;99.90
53904;DHT22;39812;52.430;16.936;2023-07-31T04:22:49;14.90;99.90
53904;DHT22;39812;52.430;16.936;2023-07-31T04:25:15;15.00;99.90
53904;DHT22;39812;52.430;16.936;2023-07-31T04:27:40;14.90;99.90
53904;DHT22;39812;52.430;16.936;2023-07-31T04:30:06;15.00;99.90
53904;DHT22;39812;52.430;16.936;2023-07-31T04:32:32;15.00;99.90
53904;DHT22;39812;52.430;16.936;2023-07-31T04:34:58;15.00;99.90
53904;DHT22;39812;52.430;16.936;2023-07-31T04:37:23;15.00;99.90
53904;DHT22;39812;52.430;16.936;2023-07-31T04:39:49;15.00;99.90
53904;DHT22;39812;52.430;16.936;2023-07-31T04:42:14;15.10;99.90
53904;DHT22;39812;52.430;16.936;2023-07-31T04:44:40;15.10;99.90
53904;DHT22;39812;52.430;16.936;2023-07-31T04:47:05;15.10;99.90
53904;DHT22;39812;52.430;16.936;2023-07-31T04:49:32;15.10;99.90
53904;DHT22;39812;52.430;16.936;2023-07-31T04:51:58;15.10;99.90
53904;DHT22;39812;52.430;16.936;2023-07-31T04:54:23;15.10;99.90
53904;DHT22;39812;52.430;16.936;2023-07-31T04:56:49;15.20;99.90
53904;DHT22;39812;52.430;16.936;2023-07-31T04:59:14;15.20;99.90
53904;DHT22;39812;52.430;16.936;2023-07-31T05:01:40;15.20;99.90
53904;DHT22;39812;52.430;16.936;2023-07-31T05:04:06;15.20;99.90
53904;DHT22;39812;52.430;16.936;2023-07-31T05:06:31;15.20;99.90
53904;DHT22;39812;52.430;16.936;2023-07-31T05:08:57;15.20;99.90
53904;DHT22;39812;52.430;16.936;2023-07-31T05:11:23;15.20;99.90
53904;DHT22;39812;52.430;16.936;2023-07-31T05:13:48;15.30;99.90
53904;DHT22;39812;52.430;16.936;2023-07-31T05:16:14;15.40;99.90
53904;DHT22;39812;52.430;16.936;2023-07-31T05:18:39;15.40;99.90
53904;DHT22;39812;52.430;16.936;2023-07-31T05:21:05;15.50;99.90
53904;DHT22;39812;52.430;16.936;2023-07-31T05:23:30;15.70;99.90
53904;DHT22;39812;52.430;16.936;2023-07-31T05:26:07;15.80;99.90
53904;DHT22;39812;52.430;16.936;2023-07-31T05:28:35;15.90;99.90
53904;DHT22;39812;52.430;16.936;2023-07-31T05:31:02;15.90;99.90
53904;DHT22;39812;52.430;16.936;2023-07-31T05:33:28;16.00;99.90
53904;DHT22;39812;52.430;16.936;2023-07-31T05:35:53;16.10;99.90
53904;DHT22;39812;52.430;16.936;2023-07-31T05:38:19;16.20;99.90
53904;DHT22;39812;52.430;16.936;2023-07-31T05:40:45;16.30;99.90
53904;DHT22;39812;52.430;16.936;2023-07-31T05:43:10;16.30;99.90
53904;DHT22;39812;52.430;16.936;2023-07-31T05:45:36;16.60;99.90
53904;DHT22;39812;52.430;16.936;2023-07-31T05:48:02;16.70;99.90
53904;DHT22;39812;52.430;16.936;2023-07-31T05:50:28;16.90;99.90
53904;DHT22;39812;52.430;16.936;2023-07-31T05:52:54;17.00;99.90
53904;DHT22;39812;52.430;16.936;2023-07-31T05:55:19;17.10;99.90
53904;DHT22;39812;52.430;16.936;2023-07-31T05:57:46;17.20;99.90
53904;DHT22;39812;52.430;16.936;2023-07-31T06:00:13;17.30;99.90
53904;DHT22;39812;52.430;16.936;2023-07-31T06:02:38;17.40;99.90
53904;DHT22;39812;52.430;16.936;2023-07-31T06:05:05;17.50;99.90
53904;DHT22;39812;52.430;16.936;2023-07-31T06:07:31;17.80;99.90
53904;DHT22;39812;52.430;16.936;2023-07-31T06:09:57;18.00;99.90
53904;DHT22;39812;52.430;16.936;2023-07-31T06:12:28;18.20;99.90
53904;DHT22;39812;52.430;16.936;2023-07-31T06:14:54;18.30;99.90
53904;DHT22;39812;52.430;16.936;2023-07-31T06:17:19;18.60;99.90
53904;DHT22;39812;52.430;16.936;2023-07-31T06:19:45;18.70;99.90
53904;DHT22;39812;52.430;16.936;2023-07-31T06:22:11;18.60;99.90
53904;DHT22;39812;52.430;16.936;2023-07-31T06:24:36;18.80;99.80
53904;DHT22;39812;52.430;16.936;2023-07-31T06:27:02;18.70;99.60
53904;DHT22;39812;52.430;16.936;2023-07-31T06:29:29;18.60;99.50
53904;DHT22;39812;52.430;16.936;2023-07-31T06:31:55;18.70;98.90
53904;DHT22;39812;52.430;16.936;2023-07-31T06:34:21;18.80;99.10
53904;DHT22;39812;52.430;16.936;2023-07-31T06:36:46;19.00;98.30
53904;DHT22;39812;52.430;16.936;2023-07-31T06:39:12;19.30;98.50
53904;DHT22;39812;52.430;16.936;2023-07-31T06:41:38;19.40;97.00
53904;DHT22;39812;52.430;16.936;2023-07-31T06:44:04;19.60;96.60
53904;DHT22;39812;52.430;16.936;2023-07-31T06:46:29;19.30;95.90
53904;DHT22;39812;52.430;16.936;2023-07-31T06:48:55;19.20;96.80
53904;DHT22;39812;52.430;16.936;2023-07-31T06:51:20;19.20;97.00
53904;DHT22;39812;52.430;16.936;2023-07-31T06:53:46;19.30;97.20
53904;DHT22;39812;52.430;16.936;2023-07-31T06:56:12;19.20;97.20
53904;DHT22;39812;52.430;16.936;2023-07-31T06:58:38;19.30;96.90
53904;DHT22;39812;52.430;16.936;2023-07-31T07:01:03;19.40;96.80
53904;DHT22;39812;52.430;16.936;2023-07-31T07:03:29;19.50;96.70
53904;DHT22;39812;52.430;16.936;2023-07-31T07:05:55;19.20;96.40
53904;DHT22;39812;52.430;16.936;2023-07-31T07:08:20;18.90;96.90
53904;DHT22;39812;52.430;16.936;2023-07-31T07:10:46;18.70;97.20
53904;DHT22;39812;52.430;16.936;2023-07-31T07:13:12;18.70;97.60
53904;DHT22;39812;52.430;16.936;2023-07-31T07:15:38;19.10;97.40
53904;DHT22;39812;52.430;16.936;2023-07-31T07:18:04;19.20;96.90
53904;DHT22;39812;52.430;16.936;2023-07-31T07:20:30;19.20;96.70
53904;DHT22;39812;52.430;16.936;2023-07-31T07:22:55;19.30;96.30
53904;DHT22;39812;52.430;16.936;2023-07-31T07:25:21;19.00;96.30
53904;DHT22;39812;52.430;16.936;2023-07-31T07:27:47;19.00;96.50
53904;DHT22;39812;52.430;16.936;2023-07-31T07:30:12;19.00;96.40
53904;DHT22;39812;52.430;16.936;2023-07-31T07:32:39;19.00;96.50
53904;DHT22;39812;52.430;16.936;2023-07-31T07:35:06;18.90;96.40
53904;DHT22;39812;52.430;16.936;2023-07-31T07:37:31;19.10;96.30
53904;DHT22;39812;52.430;16.936;2023-07-31T07:39:57;19.00;96.10
53904;DHT22;39812;52.430;16.936;2023-07-31T07:42:23;19.40;96.20
53904;DHT22;39812;52.430;16.936;2023-07-31T07:44:49;19.60;94.90
53904;DHT22;39812;52.430;16.936;2023-07-31T07:47:14;19.50;95.20
53904;DHT22;39812;52.430;16.936;2023-07-31T07:49:40;19.40;95.60
53904;DHT22;39812;52.430;16.936;2023-07-31T07:52:05;19.60;95.20
53904;DHT22;39812;52.430;16.936;2023-07-31T07:54:31;19.50;94.70
53904;DHT22;39812;52.430;16.936;2023-07-31T07:56:57;19.50;95.10
53904;DHT22;39812;52.430;16.936;2023-07-31T07:59:23;19.20;94.50
53904;DHT22;39812;52.430;16.936;2023-07-31T08:01:48;18.90;94.90
53904;DHT22;39812;52.430;16.936;2023-07-31T08:04:14;18.80;95.70
53904;DHT22;39812;52.430;16.936;2023-07-31T08:06:40;18.90;95.10
53904;DHT22;39812;52.430;16.936;2023-07-31T08:09:05;18.80;95.70
53904;DHT22;39812;52.430;16.936;2023-07-31T08:11:32;19.00;95.40
53904;DHT22;39812;52.430;16.936;2023-07-31T08:13:58;19.00;95.70
53904;DHT22;39812;52.430;16.936;2023-07-31T08:16:24;19.00;95.40
53904;DHT22;39812;52.430;16.936;2023-07-31T08:18:49;19.30;95.20
53904;DHT22;39812;52.430;16.936;2023-07-31T08:21:15;19.30;94.60
53904;DHT22;39812;52.430;16.936;2023-07-31T08:23:41;19.40;95.10
53904;DHT22;39812;52.430;16.936;2023-07-31T08:26:06;19.70;94.40
53904;DHT22;39812;52.430;16.936;2023-07-31T08:28:32;19.90;94.00
53904;DHT22;39812;52.430;16.936;2023-07-31T08:30:58;19.90;93.70
53904;DHT22;39812;52.430;16.936;2023-07-31T08:33:23;20.30;93.10
53904;DHT22;39812;52.430;16.936;2023-07-31T08:35:49;20.40;93.40
53904;DHT22;39812;52.430;16.936;2023-07-31T08:38:14;20.20;93.10
53904;DHT22;39812;52.430;16.936;2023-07-31T08:40:40;20.00;93.20
53904;DHT22;39812;52.430;16.936;2023-07-31T08:43:07;19.60;93.80
53904;DHT22;39812;52.430;16.936;2023-07-31T08:45:32;19.50;94.20
53904;DHT22;39812;52.430;16.936;2023-07-31T08:47:59;19.40;94.40
53904;DHT22;39812;52.430;16.936;2023-07-31T08:50:25;19.30;94.60
53904;DHT22;39812;52.430;16.936;2023-07-31T08:52:52;19.50;95.00
53904;DHT22;39812;52.430;16.936;2023-07-31T08:55:18;19.60;93.90
53904;DHT22;39812;52.430;16.936;2023-07-31T08:57:50;19.70;94.70
53904;DHT22;39812;52.430;16.936;2023-07-31T09:00:17;19.60;93.50
53904;DHT22;39812;52.430;16.936;2023-07-31T09:03:03;19.40;94.40
53904;DHT22;39812;52.430;16.936;2023-07-31T09:05:31;19.80;93.70
53904;DHT22;39812;52.430;16.936;2023-07-31T09:07:57;20.00;93.70
53904;DHT22;39812;52.430;16.936;2023-07-31T09:10:23;20.20;93.30
53904;DHT22;39812;52.430;16.936;2023-07-31T09:12:51;20.00;93.20
53904;DHT22;39812;52.430;16.936;2023-07-31T09:15:17;19.70;93.50
53904;DHT22;39812;52.430;16.936;2023-07-31T09:17:43;19.60;94.30
53904;DHT22;39812;52.430;16.936;2023-07-31T09:20:18;19.60;93.90
53904;DHT22;39812;52.430;16.936;2023-07-31T09:22:45;19.70;93.70
53904;DHT22;39812;52.430;16.936;2023-07-31T09:25:25;19.50;93.90
53904;DHT22;39812;52.430;16.936;2023-07-31T09:28:02;19.70;93.60
53904;DHT22;39812;52.430;16.936;2023-07-31T09:30:28;19.50;94.00
53904;DHT22;39812;52.430;16.936;2023-07-31T09:33:04;19.10;94.80
53904;DHT22;39812;52.430;16.936;2023-07-31T09:35:33;18.90;95.10
53904;DHT22;39812;52.430;16.936;2023-07-31T09:38:19;18.60;96.20
53904;DHT22;39812;52.430;16.936;2023-07-31T09:40:49;18.30;97.00
53904;DHT22;39812;52.430;16.936;2023-07-31T09:43:19;18.20;97.90
53904;DHT22;39812;52.430;16.936;2023-07-31T09:45:46;18.10;99.20
53904;DHT22;39812;52.430;16.936;2023-07-31T09:48:17;17.70;99.50
53904;DHT22;39812;52.430;16.936;2023-07-31T09:50:45;17.30;99.90
53904;DHT22;39812;52.430;16.936;2023-07-31T09:53:12;17.10;99.90
53904;DHT22;39812;52.430;16.936;2023-07-31T09:55:38;16.90;99.90
53904;DHT22;39812;52.430;16.936;2023-07-31T09:58:06;16.80;99.90
53904;DHT22;39812;52.430;16.936;2023-07-31T10:00:33;16.90;99.90
53904;DHT22;39812;52.430;16.936;2023-07-31T10:03:00;17.20;99.90
53904;DHT22;39812;52.430;16.936;2023-07-31T10:05:33;17.30;99.90
53904;DHT22;39812;52.430;16.936;2023-07-31T10:07:59;17.30;99.90
53904;DHT22;39812;52.430;16.936;2023-07-31T10:10:26;17.30;99.90
53904;DHT22;39812;52.430;16.936;2023-07-31T10:12:53;17.40;99.90
53904;DHT22;39812;52.430;16.936;2023-07-31T10:15:19;17.80;99.90
53904;DHT22;39812;52.430;16.936;2023-07-31T10:17:47;18.40;99.90
53904;DHT22;39812;52.430;16.936;2023-07-31T10:20:14;18.60;99.90
53904;DHT22;39812;52.430;16.936;2023-07-31T10:22:42;19.00;99.90
53904;DHT22;39812;52.430;16.936;2023-07-31T10:25:08;18.80;99.90
53904;DHT22;39812;52.430;16.936;2023-07-31T10:27:35;19.00;99.90
53904;DHT22;39812;52.430;16.936;2023-07-31T10:30:04;18.70;99.90
53904;DHT22;39812;52.430;16.936;2023-07-31T10:32:31;18.60;99.90
53904;DHT22;39812;52.430;16.936;2023-07-31T10:34:57;18.30;99.90
53904;DHT22;39812;52.430;16.936;2023-07-31T10:37:26;18.00;99.90
53904;DHT22;39812;52.430;16.936;2023-07-31T10:40:07;18.00;99.90
53904;DHT22;39812;52.430;16.936;2023-07-31T10:45:14;17.90;99.90
53904;DHT22;39812;52.430;16.936;2023-07-31T10:47:44;18.00;99.90
53904;DHT22;39812;52.430;16.936;2023-07-31T10:50:18;18.20;99.90
53904;DHT22;39812;52.430;16.936;2023-07-31T10:52:54;18.20;99.90
53904;DHT22;39812;52.430;16.936;2023-07-31T10:55:31;18.30;99.90
53904;DHT22;39812;52.430;16.936;2023-07-31T10:58:11;18.10;99.90
53904;DHT22;39812;52.430;16.936;2023-07-31T11:00:41;18.20;99.90
53904;DHT22;39812;52.430;16.936;2023-07-31T11:03:17;18.50;99.90
53904;DHT22;39812;52.430;16.936;2023-07-31T11:08:23;18.50;99.90
53904;DHT22;39812;52.430;16.936;2023-07-31T11:10:51;18.50;99.90
53904;DHT22;39812;52.430;16.936;2023-07-31T11:13:17;18.60;99.90
53904;DHT22;39812;52.430;16.936;2023-07-31T11:15:43;18.60;99.90
53904;DHT22;39812;52.430;16.936;2023-07-31T11:18:08;18.50;99.90
53904;DHT22;39812;52.430;16.936;2023-07-31T11:20:36;18.40;99.90
53904;DHT22;39812;52.430;16.936;2023-07-31T11:23:04;18.60;99.90
53904;DHT22;39812;52.430;16.936;2023-07-31T11:25:31;18.50;99.90
53904;DHT22;39812;52.430;16.936;2023-07-31T11:28:03;18.30;99.90
53904;DHT22;39812;52.430;16.936;2023-07-31T11:30:29;18.20;99.90
53904;DHT22;39812;52.430;16.936;2023-07-31T11:32:55;18.30;99.90
53904;DHT22;39812;52.430;16.936;2023-07-31T11:35:21;18.30;99.90
53904;DHT22;39812;52.430;16.936;2023-07-31T11:37:47;18.10;99.90
53904;DHT22;39812;52.430;16.936;2023-07-31T11:40:14;18.00;99.90
53904;DHT22;39812;52.430;16.936;2023-07-31T11:42:40;18.00;99.90
53904;DHT22;39812;52.430;16.936;2023-07-31T11:45:07;18.10;99.90
53904;DHT22;39812;52.430;16.936;2023-07-31T11:47:34;18.10;99.90
53904;DHT22;39812;52.430;16.936;2023-07-31T11:50:01;18.10;99.90
53904;DHT22;39812;52.430;16.936;2023-07-31T11:52:34;18.20;99.90
53904;DHT22;39812;52.430;16.936;2023-07-31T11:55:01;18.10;99.90
53904;DHT22;39812;52.430;16.936;2023-07-31T11:57:28;18.20;99.90
53904;DHT22;39812;52.430;16.936;2023-07-31T11:59:55;18.10;99.90
53904;DHT22;39812;52.430;16.936;2023-07-31T12:02:21;17.90;99.90
53904;DHT22;39812;52.430;16.936;2023-07-31T12:04:47;17.90;99.90
53904;DHT22;39812;52.430;16.936;2023-07-31T12:07:13;17.90;99.90
53904;DHT22;39812;52.430;16.936;2023-07-31T12:09:53;18.30;99.90
53904;DHT22;39812;52.430;16.936;2023-07-31T12:12:20;18.80;99.90
53904;DHT22;39812;52.430;16.936;2023-07-31T12:14:46;19.00;99.90
53904;DHT22;39812;52.430;16.936;2023-07-31T12:17:12;19.10;99.90
53904;DHT22;39812;52.430;16.936;2023-07-31T12:19:39;19.10;99.90
53904;DHT22;39812;52.430;16.936;2023-07-31T12:22:15;19.30;99.90
53904;DHT22;39812;52.430;16.936;2023-07-31T12:24:42;19.60;99.80
53904;DHT22;39812;52.430;16.936;2023-07-31T12:27:15;20.70;98.60
53904;DHT22;39812;52.430;16.936;2023-07-31T12:29:43;21.00;96.10
53904;DHT22;39812;52.430;16.936;2023-07-31T12:32:25;21.10;95.60
53904;DHT22;39812;52.430;16.936;2023-07-31T12:34:53;21.90;95.10
53904;DHT22;39812;52.430;16.936;2023-07-31T12:37:20;21.50;95.00
53904;DHT22;39812;52.430;16.936;2023-07-31T12:39:46;21.20;95.90
53904;DHT22;39812;52.430;16.936;2023-07-31T12:42:12;20.70;96.10
53904;DHT22;39812;52.430;16.936;2023-07-31T12:44:38;19.90;97.60
53904;DHT22;39812;52.430;16.936;2023-07-31T12:47:03;19.50;98.50
53904;DHT22;39812;52.430;16.936;2023-07-31T12:49:29;19.30;99.10
53904;DHT22;39812;52.430;16.936;2023-07-31T12:51:55;19.40;98.70
53904;DHT22;39812;52.430;16.936;2023-07-31T12:54:20;19.50;98.60
53904;DHT22;39812;52.430;16.936;2023-07-31T12:56:46;19.60;98.20
53904;DHT22;39812;52.430;16.936;2023-07-31T12:59:11;20.00;97.50
53904;DHT22;39812;52.430;16.936;2023-07-31T13:01:37;19.90;98.00
53904;DHT22;39812;52.430;16.936;2023-07-31T13:04:03;20.10;97.50
53904;DHT22;39812;52.430;16.936;2023-07-31T13:06:28;20.00;97.30
53904;DHT22;39812;52.430;16.936;2023-07-31T13:08:54;20.00;97.30
53904;DHT22;39812;52.430;16.936;2023-07-31T13:11:19;19.70;97.30
53904;DHT22;39812;52.430;16.936;2023-07-31T13:13:45;19.50;98.00
53904;DHT22;39812;52.430;16.936;2023-07-31T13:16:11;19.40;98.20
53904;DHT22;39812;52.430;16.936;2023-07-31T13:18:36;19.70;98.10
53904;DHT22;39812;52.430;16.936;2023-07-31T13:21:02;20.70;96.80
53904;DHT22;39812;52.430;16.936;2023-07-31T13:23:27;20.40;96.30
53904;DHT22;39812;52.430;16.936;2023-07-31T13:25:53;20.10;96.30
53904;DHT22;39812;52.430;16.936;2023-07-31T13:28:19;19.70;97.10
53904;DHT22;39812;52.430;16.936;2023-07-31T13:30:44;19.40;98.00
53904;DHT22;39812;52.430;16.936;2023-07-31T13:33:11;19.30;98.40
53904;DHT22;39812;52.430;16.936;2023-07-31T13:35:37;19.10;98.50
53904;DHT22;39812;52.430;16.936;2023-07-31T13:38:02;19.10;98.90
53904;DHT22;39812;52.430;16.936;2023-07-31T13:40:28;19.00;99.30
53904;DHT22;39812;52.430;16.936;2023-07-31T13:42:53;18.90;99.40
53904;DHT22;39812;52.430;16.936;2023-07-31T13:45:20;18.90;99.70
53904;DHT22;39812;52.430;16.936;2023-07-31T13:47:45;18.90;99.70
53904;DHT22;39812;52.430;16.936;2023-07-31T13:50:11;19.00;99.50
53904;DHT22;39812;52.430;16.936;2023-07-31T13:52:36;19.00;99.00
53904;DHT22;39812;52.430;16.936;2023-07-31T13:55:02;18.90;99.20
53904;DHT22;39812;52.430;16.936;2023-07-31T13:57:28;19.00;98.90
53904;DHT22;39812;52.430;16.936;2023-07-31T13:59:53;19.10;98.80
53904;DHT22;39812;52.430;16.936;2023-07-31T14:02:19;19.10;99.10
53904;DHT22;39812;52.430;16.936;2023-07-31T14:04:45;19.40;98.10
53904;DHT22;39812;52.430;16.936;2023-07-31T14:07:10;20.20;97.20
53904;DHT22;39812;52.430;16.936;2023-07-31T14:09:36;21.20;95.60
53904;DHT22;39812;52.430;16.936;2023-07-31T14:12:02;22.20;93.80
53904;DHT22;39812;52.430;16.936;2023-07-31T14:14:27;23.50;91.90
53904;DHT22;39812;52.430;16.936;2023-07-31T14:16:53;23.80;90.60
53904;DHT22;39812;52.430;16.936;2023-07-31T14:19:19;23.20;90.90
53904;DHT22;39812;52.430;16.936;2023-07-31T14:21:45;23.10;91.40
53904;DHT22;39812;52.430;16.936;2023-07-31T14:24:11;23.20;91.30
53904;DHT22;39812;52.430;16.936;2023-07-31T14:26:37;25.20;88.70
53904;DHT22;39812;52.430;16.936;2023-07-31T14:29:02;28.80;82.90
53904;DHT22;39812;52.430;16.936;2023-07-31T14:31:28;30.20;74.60
53904;DHT22;39812;52.430;16.936;2023-07-31T14:33:53;31.80;68.80
53904;DHT22;39812;52.430;16.936;2023-07-31T14:36:19;32.70;65.40
53904;DHT22;39812;52.430;16.936;2023-07-31T14:38:45;29.80;67.50
53904;DHT22;39812;52.430;16.936;2023-07-31T14:41:10;27.60;73.20
53904;DHT22;39812;52.430;16.936;2023-07-31T14:43:36;26.00;77.50
53904;DHT22;39812;52.430;16.936;2023-07-31T14:46:02;25.90;80.30
53904;DHT22;39812;52.430;16.936;2023-07-31T14:48:27;28.90;74.50
53904;DHT22;39812;52.430;16.936;2023-07-31T14:50:54;28.40;71.70
53904;DHT22;39812;52.430;16.936;2023-07-31T14:53:21;27.90;72.50
53904;DHT22;39812;52.430;16.936;2023-07-31T14:55:47;26.30;75.10
53904;DHT22;39812;52.430;16.936;2023-07-31T14:58:12;25.20;77.20
53904;DHT22;39812;52.430;16.936;2023-07-31T15:00:39;24.70;79.90
53904;DHT22;39812;52.430;16.936;2023-07-31T15:03:04;26.00;77.00
53904;DHT22;39812;52.430;16.936;2023-07-31T15:05:30;26.90;74.70
53904;DHT22;39812;52.430;16.936;2023-07-31T15:07:56;29.20;71.50
53904;DHT22;39812;52.430;16.936;2023-07-31T15:10:22;29.70;66.90
53904;DHT22;39812;52.430;16.936;2023-07-31T15:12:47;26.60;72.20
53904;DHT22;39812;52.430;16.936;2023-07-31T15:15:14;27.80;71.50
53904;DHT22;39812;52.430;16.936;2023-07-31T15:17:40;28.10;69.90
53904;DHT22;39812;52.430;16.936;2023-07-31T15:20:06;25.90;73.80
53904;DHT22;39812;52.430;16.936;2023-07-31T15:22:32;24.60;77.50
53904;DHT22;39812;52.430;16.936;2023-07-31T15:24:58;23.50;80.90
53904;DHT22;39812;52.430;16.936;2023-07-31T15:27:23;22.70;84.00
53904;DHT22;39812;52.430;16.936;2023-07-31T15:29:49;22.40;85.90